KCBM/CBM METAR and TAF weather

Enter ICAO airport designator
Station Type Date Time Source
KCBM METAR 2018/12/10 23:56 UTC NOAA

KCBM 102356Z AUTO 35006KT 10SM OVC070 04/02 A3028 RMK AO2 SLPNO 60001 T00430023 10061 20043 52017


Station Type Date Time Source
KCBM Decoded METAR 2018/12/10 23:56 UTC NOAA

Columbus Air Force Base, MS, United States (KCBM) 33-39N 088-27W
Dec 10, 2018 - 06:56 PM EST / 2018.12.10 2356 UTC
Wind: from the N (350 degrees) at 7 MPH (6 KT):0
Visibility: 10 mile(s):0
Sky conditions: overcast
Temperature: 39.7 F (4.3 C)
Dew Point: 36.1 F (2.3 C)
Relative Humidity: 86%
Pressure (altimeter): 30.28 in. Hg (1025 hPa)
Pressure tendency: 0.05 inches (1.7 hPa) higher than three hours ago
ob: KCBM 102356Z AUTO 35006KT 10SM OVC070 04/02 A3028 RMK AO2 SLPNO 60001 T00430023 10061 20043 52017
cycle: 0

Station Type Date Time Source
KCBM TAF 2018/12/10 21:45 UTC NOAA

TAF TAF
AMD KCBM 102142Z 1021/1123 33012KT 9000 -RA BKN010 620409 QNH3020INS
BECMG 1022/1023 33009KT 9999 NSW BKN015 QNH3022INS
BECMG 1100/1101 33009KT 9999 SCT030 QNH3024INS
BECMG 1103/1104 VRB06KT 9999 SKC QNH3028INS TX07/1021Z TNM04/1110Z


Example: see airport list